sensor_id;sensor_type;location;lat;lon;timestamp;pressure;altitude;pressure_sealevel;temperature;humidity
64115;BME280;62188;35.640;139.748;2022-08-19T00:00:36;100433.32;;;33.70;25.58
64115;BME280;62188;35.640;139.748;2022-08-19T00:03:02;100435.58;;;33.54;25.29
64115;BME280;62188;35.640;139.748;2022-08-19T00:05:27;100432.24;;;33.78;25.13
64115;BME280;62188;35.640;139.748;2022-08-19T00:07:53;100430.89;;;33.38;25.07
64115;BME280;62188;35.640;139.748;2022-08-19T00:10:20;100429.21;;;33.32;25.02
64115;BME280;62188;35.640;139.748;2022-08-19T00:12:43;100430.96;;;33.46;25.05
64115;BME280;62188;35.640;139.748;2022-08-19T00:15:13;100433.05;;;33.43;25.41
64115;BME280;62188;35.640;139.748;2022-08-19T00:17:34;100432.34;;;33.91;25.32
64115;BME280;62188;35.640;139.748;2022-08-19T00:19:59;100436.16;;;33.89;25.08
64115;BME280;62188;35.640;139.748;2022-08-19T00:22:24;100437.13;;;34.05;25.21
64115;BME280;62188;35.640;139.748;2022-08-19T00:24:49;100428.91;;;34.14;25.47
64115;BME280;62188;35.640;139.748;2022-08-19T00:27:15;100426.68;;;34.22;25.01
64115;BME280;62188;35.640;139.748;2022-08-19T00:29:40;100426.35;;;34.42;25.18
64115;BME280;62188;35.640;139.748;2022-08-19T00:32:06;100436.84;;;34.28;24.84
64115;BME280;62188;35.640;139.748;2022-08-19T00:34:30;100443.41;;;34.69;24.64
64115;BME280;62188;35.640;139.748;2022-08-19T00:36:56;100442.77;;;34.59;24.30
64115;BME280;62188;35.640;139.748;2022-08-19T00:39:21;100441.30;;;34.56;24.54
64115;BME280;62188;35.640;139.748;2022-08-19T00:41:47;100441.92;;;34.20;24.53
64115;BME280;62188;35.640;139.748;2022-08-19T00:44:14;100437.17;;;34.38;24.54
64115;BME280;62188;35.640;139.748;2022-08-19T00:46:39;100439.95;;;33.98;24.72
64115;BME280;62188;35.640;139.748;2022-08-19T00:49:06;100436.90;;;34.63;24.65
64115;BME280;62188;35.640;139.748;2022-08-19T00:51:29;100437.80;;;34.61;24.58
64115;BME280;62188;35.640;139.748;2022-08-19T00:53:54;100437.56;;;34.83;24.36
64115;BME280;62188;35.640;139.748;2022-08-19T00:56:18;100436.37;;;34.41;24.02
64115;BME280;62188;35.640;139.748;2022-08-19T00:58:44;100432.80;;;34.69;24.12
64115;BME280;62188;35.640;139.748;2022-08-19T01:01:08;100433.54;;;34.86;24.17
64115;BME280;62188;35.640;139.748;2022-08-19T01:03:34;100431.13;;;34.78;24.22
64115;BME280;62188;35.640;139.748;2022-08-19T01:05:59;100423.41;;;34.87;23.94
64115;BME280;62188;35.640;139.748;2022-08-19T01:08:24;100423.31;;;34.77;23.84
64115;BME280;62188;35.640;139.748;2022-08-19T01:10:54;100418.54;;;35.12;23.57
64115;BME280;62188;35.640;139.748;2022-08-19T01:13:16;100416.58;;;35.08;23.73
64115;BME280;62188;35.640;139.748;2022-08-19T01:15:45;100418.42;;;35.05;23.38
64115;BME280;62188;35.640;139.748;2022-08-19T01:18:09;100419.16;;;34.85;23.56
64115;BME280;62188;35.640;139.748;2022-08-19T01:20:31;100417.02;;;34.68;23.22
64115;BME280;62188;35.640;139.748;2022-08-19T01:22:58;100411.20;;;34.66;23.72
64115;BME280;62188;35.640;139.748;2022-08-19T01:25:28;100408.90;;;34.66;23.59
64115;BME280;62188;35.640;139.748;2022-08-19T01:27:49;100403.93;;;34.79;23.85
64115;BME280;62188;35.640;139.748;2022-08-19T01:30:15;100402.08;;;35.09;23.63
64115;BME280;62188;35.640;139.748;2022-08-19T01:32:37;100405.30;;;34.92;23.83
64115;BME280;62188;35.640;139.748;2022-08-19T01:35:04;100401.87;;;35.09;23.86
64115;BME280;62188;35.640;139.748;2022-08-19T01:37:28;100397.41;;;34.99;23.69
64115;BME280;62188;35.640;139.748;2022-08-19T01:39:52;100390.67;;;34.89;23.45
64115;BME280;62188;35.640;139.748;2022-08-19T01:42:19;100386.56;;;35.23;23.40
64115;BME280;62188;35.640;139.748;2022-08-19T01:44:43;100385.39;;;35.10;23.37
64115;BME280;62188;35.640;139.748;2022-08-19T01:47:09;100382.07;;;35.34;23.36
64115;BME280;62188;35.640;139.748;2022-08-19T01:49:34;100385.51;;;35.57;23.72
64115;BME280;62188;35.640;139.748;2022-08-19T01:52:00;100381.91;;;35.70;23.30
64115;BME280;62188;35.640;139.748;2022-08-19T01:54:25;100372.34;;;35.81;23.14
64115;BME280;62188;35.640;139.748;2022-08-19T01:56:50;100370.08;;;35.60;23.69
64115;BME280;62188;35.640;139.748;2022-08-19T01:59:17;100369.13;;;35.50;23.46
64115;BME280;62188;35.640;139.748;2022-08-19T02:01:40;100364.33;;;35.49;23.36
64115;BME280;62188;35.640;139.748;2022-08-19T02:04:05;100358.57;;;35.56;23.70
64115;BME280;62188;35.640;139.748;2022-08-19T02:06:31;100353.00;;;35.61;23.39
64115;BME280;62188;35.640;139.748;2022-08-19T02:08:56;100350.33;;;35.48;23.56
64115;BME280;62188;35.640;139.748;2022-08-19T02:11:23;100345.91;;;36.03;23.57
64115;BME280;62188;35.640;139.748;2022-08-19T02:13:47;100349.15;;;35.94;22.94
64115;BME280;62188;35.640;139.748;2022-08-19T02:16:12;100344.25;;;35.31;22.82
64115;BME280;62188;35.640;139.748;2022-08-19T02:18:37;100338.48;;;35.73;22.94
64115;BME280;62188;35.640;139.748;2022-08-19T02:21:02;100336.27;;;35.78;22.92
64115;BME280;62188;35.640;139.748;2022-08-19T02:23:27;100338.33;;;35.86;23.07
64115;BME280;62188;35.640;139.748;2022-08-19T02:25:53;100347.85;;;35.15;23.70
64115;BME280;62188;35.640;139.748;2022-08-19T02:28:18;100340.62;;;35.01;24.13
64115;BME280;62188;35.640;139.748;2022-08-19T02:30:44;100343.74;;;34.29;24.95
64115;BME280;62188;35.640;139.748;2022-08-19T02:33:08;100341.27;;;34.05;25.82
64115;BME280;62188;35.640;139.748;2022-08-19T02:35:34;100335.47;;;34.05;27.30
64115;BME280;62188;35.640;139.748;2022-08-19T02:37:59;100336.74;;;33.69;27.63
64115;BME280;62188;35.640;139.748;2022-08-19T02:40:24;100338.28;;;33.81;27.37
64115;BME280;62188;35.640;139.748;2022-08-19T02:42:51;100347.32;;;33.86;27.66
64115;BME280;62188;35.640;139.748;2022-08-19T02:45:15;100335.99;;;33.84;27.70
64115;BME280;62188;35.640;139.748;2022-08-19T02:47:40;100335.98;;;33.78;27.08
64115;BME280;62188;35.640;139.748;2022-08-19T02:50:07;100333.13;;;33.90;27.09
64115;BME280;62188;35.640;139.748;2022-08-19T02:52:32;100330.39;;;33.53;27.31
64115;BME280;62188;35.640;139.748;2022-08-19T02:54:56;100329.76;;;33.76;27.16
64115;BME280;62188;35.640;139.748;2022-08-19T02:57:21;100329.06;;;33.83;27.01
64115;BME280;62188;35.640;139.748;2022-08-19T02:59:47;100327.81;;;33.78;26.59
64115;BME280;62188;35.640;139.748;2022-08-19T03:02:12;100326.96;;;33.48;26.96
64115;BME280;62188;35.640;139.748;2022-08-19T03:04:38;100321.51;;;33.63;26.84
64115;BME280;62188;35.640;139.748;2022-08-19T03:07:04;100319.33;;;33.51;26.66
64115;BME280;62188;35.640;139.748;2022-08-19T03:09:28;100313.92;;;33.70;26.93
64115;BME280;62188;35.640;139.748;2022-08-19T03:11:54;100314.41;;;33.79;26.80
64115;BME280;62188;35.640;139.748;2022-08-19T03:14:19;100312.19;;;33.66;26.79
64115;BME280;62188;35.640;139.748;2022-08-19T03:16:48;100313.77;;;34.14;26.68
64115;BME280;62188;35.640;139.748;2022-08-19T03:19:10;100305.32;;;34.44;26.42
64115;BME280;62188;35.640;139.748;2022-08-19T03:21:36;100302.74;;;34.23;26.12
64115;BME280;62188;35.640;139.748;2022-08-19T03:24:03;100302.61;;;34.62;25.72
64115;BME280;62188;35.640;139.748;2022-08-19T03:26:26;100305.05;;;34.24;25.65
64115;BME280;62188;35.640;139.748;2022-08-19T03:28:51;100300.51;;;34.52;25.68
64115;BME280;62188;35.640;139.748;2022-08-19T03:31:18;100299.85;;;34.60;25.50
64115;BME280;62188;35.640;139.748;2022-08-19T03:33:42;100301.06;;;34.57;25.07
64115;BME280;62188;35.640;139.748;2022-08-19T03:36:10;100303.07;;;34.44;25.33
64115;BME280;62188;35.640;139.748;2022-08-19T03:38:33;100296.92;;;34.42;25.67
64115;BME280;62188;35.640;139.748;2022-08-19T03:40:58;100297.27;;;34.53;25.73
64115;BME280;62188;35.640;139.748;2022-08-19T03:43:23;100287.24;;;34.59;26.11
64115;BME280;62188;35.640;139.748;2022-08-19T03:45:49;100280.18;;;34.75;26.05
64115;BME280;62188;35.640;139.748;2022-08-19T03:48:14;100282.44;;;34.68;26.17
64115;BME280;62188;35.640;139.748;2022-08-19T03:50:40;100288.11;;;34.38;25.91
64115;BME280;62188;35.640;139.748;2022-08-19T03:53:04;100282.58;;;34.19;25.92
64115;BME280;62188;35.640;139.748;2022-08-19T03:55:30;100284.40;;;34.31;26.07
64115;BME280;62188;35.640;139.748;2022-08-19T03:57:54;100278.63;;;34.36;26.21
64115;BME280;62188;35.640;139.748;2022-08-19T04:00:20;100275.77;;;34.56;26.31
64115;BME280;62188;35.640;139.748;2022-08-19T04:02:45;100266.59;;;34.63;25.81
64115;BME280;62188;35.640;139.748;2022-08-19T04:05:11;100267.24;;;34.77;25.81
64115;BME280;62188;35.640;139.748;2022-08-19T04:07:36;100262.73;;;34.78;25.71
64115;BME280;62188;35.640;139.748;2022-08-19T04:10:02;100256.68;;;34.39;26.23
64115;BME280;62188;35.640;139.748;2022-08-19T04:12:27;100252.33;;;34.74;26.29
64115;BME280;62188;35.640;139.748;2022-08-19T04:14:52;100248.11;;;34.77;25.75
64115;BME280;62188;35.640;139.748;2022-08-19T04:17:17;100252.52;;;34.66;26.31
64115;BME280;62188;35.640;139.748;2022-08-19T04:19:42;100246.47;;;34.84;25.79
64115;BME280;62188;35.640;139.748;2022-08-19T04:22:08;100247.10;;;34.92;26.28
64115;BME280;62188;35.640;139.748;2022-08-19T04:24:34;100243.66;;;34.55;26.29
64115;BME280;62188;35.640;139.748;2022-08-19T04:27:00;100237.88;;;34.56;26.53
64115;BME280;62188;35.640;139.748;2022-08-19T04:29:24;100235.86;;;34.49;26.81
64115;BME280;62188;35.640;139.748;2022-08-19T04:31:49;100232.16;;;34.46;26.73
64115;BME280;62188;35.640;139.748;2022-08-19T04:34:17;100239.71;;;34.32;27.33
64115;BME280;62188;35.640;139.748;2022-08-19T04:36:42;100244.22;;;34.41;27.86
64115;BME280;62188;35.640;139.748;2022-08-19T04:39:07;100239.14;;;34.43;27.79
64115;BME280;62188;35.640;139.748;2022-08-19T04:41:30;100237.48;;;33.91;28.00
64115;BME280;62188;35.640;139.748;2022-08-19T04:43:55;100234.84;;;34.00;28.19
64115;BME280;62188;35.640;139.748;2022-08-19T04:46:20;100236.92;;;33.84;28.56
64115;BME280;62188;35.640;139.748;2022-08-19T04:48:46;100234.04;;;33.73;28.82
64115;BME280;62188;35.640;139.748;2022-08-19T04:51:13;100230.08;;;33.58;28.79
64115;BME280;62188;35.640;139.748;2022-08-19T04:53:38;100222.97;;;33.49;29.20
64115;BME280;62188;35.640;139.748;2022-08-19T04:56:06;100219.37;;;33.51;29.48
64115;BME280;62188;35.640;139.748;2022-08-19T04:58:28;100218.04;;;33.59;29.49
64115;BME280;62188;35.640;139.748;2022-08-19T05:00:53;100219.11;;;33.40;28.86
64115;BME280;62188;35.640;139.748;2022-08-19T05:03:23;100210.40;;;33.55;28.69
64115;BME280;62188;35.640;139.748;2022-08-19T05:05:44;100207.11;;;33.58;28.98
64115;BME280;62188;35.640;139.748;2022-08-19T05:08:08;100205.24;;;33.51;28.36
64115;BME280;62188;35.640;139.748;2022-08-19T05:10:35;100204.58;;;33.45;28.07
64115;BME280;62188;35.640;139.748;2022-08-19T05:12:59;100205.71;;;33.42;27.71
64115;BME280;62188;35.640;139.748;2022-08-19T05:15:24;100201.77;;;33.32;27.65
64115;BME280;62188;35.640;139.748;2022-08-19T05:17:49;100210.45;;;32.91;27.11
64115;BME280;62188;35.640;139.748;2022-08-19T05:20:15;100217.75;;;33.04;27.37
64115;BME280;62188;35.640;139.748;2022-08-19T05:22:40;100216.92;;;32.63;27.63
64115;BME280;62188;35.640;139.748;2022-08-19T05:25:09;100216.95;;;33.06;27.58
64115;BME280;62188;35.640;139.748;2022-08-19T05:27:31;100213.20;;;33.23;27.40
64115;BME280;62188;35.640;139.748;2022-08-19T05:29:56;100209.14;;;32.98;26.81
64115;BME280;62188;35.640;139.748;2022-08-19T05:32:21;100210.02;;;32.98;26.86
64115;BME280;62188;35.640;139.748;2022-08-19T05:34:47;100216.88;;;32.91;26.18
64115;BME280;62188;35.640;139.748;2022-08-19T05:37:11;100214.94;;;32.78;26.65
64115;BME280;62188;35.640;139.748;2022-08-19T05:39:38;100215.55;;;32.86;26.74
64115;BME280;62188;35.640;139.748;2022-08-19T05:42:05;100209.53;;;32.98;26.99
64115;BME280;62188;35.640;139.748;2022-08-19T05:44:29;100213.52;;;32.82;26.25
64115;BME280;62188;35.640;139.748;2022-08-19T05:46:53;100213.74;;;33.10;26.08
64115;BME280;62188;35.640;139.748;2022-08-19T05:49:19;100217.73;;;32.92;26.10
64115;BME280;62188;35.640;139.748;2022-08-19T05:51:43;100208.34;;;33.14;26.05
64115;BME280;62188;35.640;139.748;2022-08-19T05:54:09;100217.13;;;33.19;25.88
64115;BME280;62188;35.640;139.748;2022-08-19T05:56:35;100217.71;;;32.82;25.65
64115;BME280;62188;35.640;139.748;2022-08-19T05:59:00;100204.88;;;32.59;26.12
64115;BME280;62188;35.640;139.748;2022-08-19T06:01:26;100214.30;;;32.69;26.34
64115;BME280;62188;35.640;139.748;2022-08-19T06:03:51;100214.06;;;32.62;26.66
64115;BME280;62188;35.640;139.748;2022-08-19T06:06:17;100213.40;;;32.92;27.22
64115;BME280;62188;35.640;139.748;2022-08-19T06:08:42;100222.01;;;32.72;28.16
64115;BME280;62188;35.640;139.748;2022-08-19T06:11:13;100214.79;;;32.57;28.01
64115;BME280;62188;35.640;139.748;2022-08-19T06:13:32;100206.92;;;32.64;27.43
64115;BME280;62188;35.640;139.748;2022-08-19T06:15:58;100208.65;;;33.03;27.15
64115;BME280;62188;35.640;139.748;2022-08-19T06:18:24;100211.04;;;32.81;27.25
64115;BME280;62188;35.640;139.748;2022-08-19T06:20:48;100209.02;;;33.19;27.50
64115;BME280;62188;35.640;139.748;2022-08-19T06:23:14;100212.62;;;33.11;28.05
64115;BME280;62188;35.640;139.748;2022-08-19T06:25:40;100215.56;;;32.77;29.41
64115;BME280;62188;35.640;139.748;2022-08-19T06:28:05;100215.03;;;32.92;30.27
64115;BME280;62188;35.640;139.748;2022-08-19T06:30:30;100218.17;;;32.77;30.92
64115;BME280;62188;35.640;139.748;2022-08-19T06:32:56;100216.86;;;32.66;33.07
64115;BME280;62188;35.640;139.748;2022-08-19T06:35:22;100216.44;;;32.36;34.05
64115;BME280;62188;35.640;139.748;2022-08-19T06:37:47;100232.21;;;32.37;35.53
64115;BME280;62188;35.640;139.748;2022-08-19T06:40:13;100236.59;;;32.00;36.35
64115;BME280;62188;35.640;139.748;2022-08-19T06:42:38;100234.00;;;32.17;36.71
64115;BME280;62188;35.640;139.748;2022-08-19T06:45:03;100230.67;;;32.46;36.72
64115;BME280;62188;35.640;139.748;2022-08-19T06:47:28;100233.48;;;32.15;37.29
64115;BME280;62188;35.640;139.748;2022-08-19T06:49:55;100235.55;;;32.47;36.92
64115;BME280;62188;35.640;139.748;2022-08-19T06:52:20;100246.46;;;32.02;37.37
64115;BME280;62188;35.640;139.748;2022-08-19T06:54:45;100250.97;;;32.41;37.92
64115;BME280;62188;35.640;139.748;2022-08-19T06:57:09;100247.50;;;32.11;38.28
64115;BME280;62188;35.640;139.748;2022-08-19T06:59:36;100249.17;;;32.17;38.43
64115;BME280;62188;35.640;139.748;2022-08-19T07:02:05;100259.57;;;31.93;39.00
64115;BME280;62188;35.640;139.748;2022-08-19T07:04:28;100261.72;;;32.18;38.90
64115;BME280;62188;35.640;139.748;2022-08-19T07:06:57;100260.43;;;32.32;39.19
64115;BME280;62188;35.640;139.748;2022-08-19T07:09:18;100257.34;;;32.10;38.91
64115;BME280;62188;35.640;139.748;2022-08-19T07:11:46;100268.86;;;32.00;39.14
64115;BME280;62188;35.640;139.748;2022-08-19T07:14:07;100263.75;;;31.95;39.48
64115;BME280;62188;35.640;139.748;2022-08-19T07:16:31;100266.24;;;31.96;38.86
64115;BME280;62188;35.640;139.748;2022-08-19T07:18:57;100264.04;;;31.68;39.27
64115;BME280;62188;35.640;139.748;2022-08-19T07:21:24;100268.28;;;31.98;39.15
64115;BME280;62188;35.640;139.748;2022-08-19T07:23:48;100272.82;;;31.81;39.41
64115;BME280;62188;35.640;139.748;2022-08-19T07:26:15;100270.55;;;31.91;39.93
64115;BME280;62188;35.640;139.748;2022-08-19T07:28:38;100270.90;;;31.53;39.91
64115;BME280;62188;35.640;139.748;2022-08-19T07:31:03;100266.68;;;31.47;39.92
64115;BME280;62188;35.640;139.748;2022-08-19T07:33:28;100272.93;;;31.62;39.90
64115;BME280;62188;35.640;139.748;2022-08-19T07:35:54;100266.99;;;31.30;39.97
64115;BME280;62188;35.640;139.748;2022-08-19T07:38:19;100269.03;;;31.47;40.57
64115;BME280;62188;35.640;139.748;2022-08-19T07:40:45;100275.07;;;31.42;40.14
64115;BME280;62188;35.640;139.748;2022-08-19T07:43:10;100276.30;;;31.32;40.10
64115;BME280;62188;35.640;139.748;2022-08-19T07:45:35;100279.02;;;31.22;40.04
64115;BME280;62188;35.640;139.748;2022-08-19T07:48:00;100278.73;;;30.99;40.24
64115;BME280;62188;35.640;139.748;2022-08-19T07:50:26;100284.78;;;31.15;39.96
64115;BME280;62188;35.640;139.748;2022-08-19T07:52:51;100288.69;;;31.26;39.89
64115;BME280;62188;35.640;139.748;2022-08-19T07:55:18;100291.02;;;31.33;39.69
64115;BME280;62188;35.640;139.748;2022-08-19T07:57:41;100291.48;;;31.39;39.35
64115;BME280;62188;35.640;139.748;2022-08-19T08:00:09;100295.99;;;31.47;38.90
64115;BME280;62188;35.640;139.748;2022-08-19T08:02:33;100295.45;;;31.78;38.81
64115;BME280;62188;35.640;139.748;2022-08-19T08:04:58;100291.79;;;31.50;38.35
64115;BME280;62188;35.640;139.748;2022-08-19T08:07:23;100302.79;;;31.55;38.30
64115;BME280;62188;35.640;139.748;2022-08-19T08:09:49;100298.00;;;31.05;38.28
64115;BME280;62188;35.640;139.748;2022-08-19T08:12:21;100303.59;;;30.82;38.22
64115;BME280;62188;35.640;139.748;2022-08-19T08:14:44;100295.27;;;30.71;38.31
64115;BME280;62188;35.640;139.748;2022-08-19T08:17:06;100299.12;;;30.79;38.40
64115;BME280;62188;35.640;139.748;2022-08-19T08:19:30;100290.33;;;30.90;38.29
64115;BME280;62188;35.640;139.748;2022-08-19T08:21:58;100294.19;;;30.99;37.92
64115;BME280;62188;35.640;139.748;2022-08-19T08:24:21;100293.87;;;31.06;37.71
64115;BME280;62188;35.640;139.748;2022-08-19T08:26:47;100297.69;;;31.15;37.73
64115;BME280;62188;35.640;139.748;2022-08-19T08:29:11;100292.00;;;31.14;37.49
64115;BME280;62188;35.640;139.748;2022-08-19T08:31:37;100292.31;;;31.29;37.53
64115;BME280;62188;35.640;139.748;2022-08-19T08:34:02;100297.08;;;31.37;37.16
64115;BME280;62188;35.640;139.748;2022-08-19T08:36:28;100294.75;;;31.33;37.00
64115;BME280;62188;35.640;139.748;2022-08-19T08:38:53;100290.28;;;31.22;36.96
64115;BME280;62188;35.640;139.748;2022-08-19T08:41:26;100296.26;;;31.21;36.95
64115;BME280;62188;35.640;139.748;2022-08-19T08:43:47;100296.33;;;31.14;37.08
64115;BME280;62188;35.640;139.748;2022-08-19T08:46:12;100298.70;;;31.11;37.27
64115;BME280;62188;35.640;139.748;2022-08-19T08:48:39;100301.57;;;31.69;37.33
64115;BME280;62188;35.640;139.748;2022-08-19T08:51:02;100305.05;;;31.23;37.07
64115;BME280;62188;35.640;139.748;2022-08-19T08:53:26;100309.19;;;31.12;37.07
64115;BME280;62188;35.640;139.748;2022-08-19T08:55:51;100309.93;;;31.00;37.17
64115;BME280;62188;35.640;139.748;2022-08-19T08:58:21;100317.72;;;30.72;37.45
64115;BME280;62188;35.640;139.748;2022-08-19T09:00:45;100320.33;;;30.47;37.84
64115;BME280;62188;35.640;139.748;2022-08-19T09:03:12;100324.98;;;30.54;37.76
64115;BME280;62188;35.640;139.748;2022-08-19T09:05:38;100330.23;;;30.43;37.76
64115;BME280;62188;35.640;139.748;2022-08-19T09:08:02;100330.33;;;30.49;37.92
64115;BME280;62188;35.640;139.748;2022-08-19T09:10:26;100334.08;;;30.76;37.93
64115;BME280;62188;35.640;139.748;2022-08-19T09:12:55;100329.35;;;30.74;38.06
64115;BME280;62188;35.640;139.748;2022-08-19T09:15:14;100334.51;;;30.55;38.12
64115;BME280;62188;35.640;139.748;2022-08-19T09:17:38;100335.59;;;30.24;38.18
64115;BME280;62188;35.640;139.748;2022-08-19T09:20:06;100338.09;;;30.76;38.10
64115;BME280;62188;35.640;139.748;2022-08-19T09:22:29;100347.70;;;30.30;37.88
64115;BME280;62188;35.640;139.748;2022-08-19T09:24:55;100347.80;;;30.76;37.66
64115;BME280;62188;35.640;139.748;2022-08-19T09:27:20;100346.75;;;30.69;37.38
64115;BME280;62188;35.640;139.748;2022-08-19T09:29:45;100342.88;;;30.63;37.46
64115;BME280;62188;35.640;139.748;2022-08-19T09:32:11;100343.00;;;30.57;37.63
64115;BME280;62188;35.640;139.748;2022-08-19T09:34:36;100349.11;;;30.17;37.69
64115;BME280;62188;35.640;139.748;2022-08-19T09:37:01;100356.17;;;30.64;37.65
64115;BME280;62188;35.640;139.748;2022-08-19T09:39:27;100353.69;;;30.46;38.21
64115;BME280;62188;35.640;139.748;2022-08-19T09:41:52;100353.53;;;30.60;37.97
64115;BME280;62188;35.640;139.748;2022-08-19T09:44:18;100353.85;;;30.72;37.91
64115;BME280;62188;35.640;139.748;2022-08-19T09:46:43;100358.10;;;30.80;37.80
64115;BME280;62188;35.640;139.748;2022-08-19T09:49:08;100357.68;;;30.46;37.71
64115;BME280;62188;35.640;139.748;2022-08-19T09:51:34;100362.45;;;30.95;37.78
64115;BME280;62188;35.640;139.748;2022-08-19T09:54:02;100366.00;;;30.53;37.81
64115;BME280;62188;35.640;139.748;2022-08-19T09:56:24;100368.21;;;30.71;37.91
64115;BME280;62188;35.640;139.748;2022-08-19T09:58:49;100371.98;;;30.63;38.12
64115;BME280;62188;35.640;139.748;2022-08-19T10:01:19;100370.71;;;30.69;38.07
64115;BME280;62188;35.640;139.748;2022-08-19T10:03:40;100371.62;;;30.38;38.22
64115;BME280;62188;35.640;139.748;2022-08-19T10:06:06;100373.17;;;30.46;38.56
64115;BME280;62188;35.640;139.748;2022-08-19T10:08:33;100376.61;;;30.48;38.68
64115;BME280;62188;35.640;139.748;2022-08-19T10:10:57;100380.14;;;30.47;39.02
64115;BME280;62188;35.640;139.748;2022-08-19T10:13:25;100386.65;;;30.25;38.89
64115;BME280;62188;35.640;139.748;2022-08-19T10:15:47;100390.36;;;30.57;38.91
64115;BME280;62188;35.640;139.748;2022-08-19T10:18:12;100390.76;;;30.13;39.41
64115;BME280;62188;35.640;139.748;2022-08-19T10:20:37;100396.18;;;30.53;39.42
64115;BME280;62188;35.640;139.748;2022-08-19T10:23:03;100399.74;;;30.60;39.39
64115;BME280;62188;35.640;139.748;2022-08-19T10:25:28;100399.17;;;30.56;39.35
64115;BME280;62188;35.640;139.748;2022-08-19T10:27:53;100406.40;;;30.63;39.28
64115;BME280;62188;35.640;139.748;2022-08-19T10:30:19;100405.94;;;30.37;39.16
64115;BME280;62188;35.640;139.748;2022-08-19T10:32:44;100403.98;;;30.58;39.70
64115;BME280;62188;35.640;139.748;2022-08-19T10:35:10;100402.48;;;30.52;39.47
64115;BME280;62188;35.640;139.748;2022-08-19T10:37:36;100400.83;;;30.48;39.63
64115;BME280;62188;35.640;139.748;2022-08-19T10:40:00;100404.40;;;30.29;39.43
64115;BME280;62188;35.640;139.748;2022-08-19T10:42:26;100408.96;;;30.26;39.37
64115;BME280;62188;35.640;139.748;2022-08-19T10:44:51;100419.12;;;30.39;39.44
64115;BME280;62188;35.640;139.748;2022-08-19T10:47:16;100420.51;;;30.21;39.62
64115;BME280;62188;35.640;139.748;2022-08-19T10:49:42;100418.66;;;30.23;39.68
64115;BME280;62188;35.640;139.748;2022-08-19T10:52:07;100416.09;;;30.13;39.71
64115;BME280;62188;35.640;139.748;2022-08-19T10:54:33;100416.73;;;30.01;39.92
64115;BME280;62188;35.640;139.748;2022-08-19T10:56:58;100422.04;;;29.95;40.20
64115;BME280;62188;35.640;139.748;2022-08-19T10:59:25;100426.95;;;29.97;40.17
64115;BME280;62188;35.640;139.748;2022-08-19T11:01:50;100425.76;;;29.86;40.62
64115;BME280;62188;35.640;139.748;2022-08-19T11:04:15;100433.28;;;29.95;40.55
64115;BME280;62188;35.640;139.748;2022-08-19T11:06:40;100436.13;;;30.01;40.91
64115;BME280;62188;35.640;139.748;2022-08-19T11:09:05;100435.61;;;30.17;41.08
64115;BME280;62188;35.640;139.748;2022-08-19T11:11:30;100436.49;;;29.77;41.55
64115;BME280;62188;35.640;139.748;2022-08-19T11:13:55;100436.08;;;29.63;41.99
64115;BME280;62188;35.640;139.748;2022-08-19T11:16:22;100444.35;;;29.81;42.14
64115;BME280;62188;35.640;139.748;2022-08-19T11:18:48;100442.35;;;29.58;42.25
64115;BME280;62188;35.640;139.748;2022-08-19T11:21:14;100437.57;;;29.19;42.48
64115;BME280;62188;35.640;139.748;2022-08-19T11:23:36;100437.13;;;29.31;42.78
64115;BME280;62188;35.640;139.748;2022-08-19T11:26:02;100437.22;;;29.42;43.03
64115;BME280;62188;35.640;139.748;2022-08-19T11:28:27;100442.46;;;29.55;42.48
64115;BME280;62188;35.640;139.748;2022-08-19T11:30:52;100436.58;;;29.43;42.49
64115;BME280;62188;35.640;139.748;2022-08-19T11:33:18;100437.01;;;29.49;42.55
64115;BME280;62188;35.640;139.748;2022-08-19T11:35:43;100430.42;;;29.65;42.60
64115;BME280;62188;35.640;139.748;2022-08-19T11:38:09;100428.30;;;29.75;42.22
64115;BME280;62188;35.640;139.748;2022-08-19T11:40:33;100428.36;;;29.88;42.05
64115;BME280;62188;35.640;139.748;2022-08-19T11:42:59;100428.56;;;29.71;42.27
64115;BME280;62188;35.640;139.748;2022-08-19T11:45:25;100428.96;;;29.81;41.90
64115;BME280;62188;35.640;139.748;2022-08-19T11:47:50;100428.61;;;29.71;41.91
64115;BME280;62188;35.640;139.748;2022-08-19T11:50:15;100432.02;;;29.70;42.31
64115;BME280;62188;35.640;139.748;2022-08-19T11:52:41;100432.62;;;29.98;42.19
64115;BME280;62188;35.640;139.748;2022-08-19T11:55:08;100431.48;;;29.62;42.14
64115;BME280;62188;35.640;139.748;2022-08-19T11:57:31;100430.77;;;29.98;41.96
64115;BME280;62188;35.640;139.748;2022-08-19T11:59:56;100431.58;;;30.09;41.87
64115;BME280;62188;35.640;139.748;2022-08-19T12:02:22;100430.94;;;30.11;41.87
64115;BME280;62188;35.640;139.748;2022-08-19T12:04:47;100430.51;;;30.10;41.95
64115;BME280;62188;35.640;139.748;2022-08-19T12:07:12;100422.67;;;29.95;42.26
64115;BME280;62188;35.640;139.748;2022-08-19T12:09:38;100423.23;;;29.70;42.34
64115;BME280;62188;35.640;139.748;2022-08-19T12:12:03;100421.59;;;29.71;42.52
64115;BME280;62188;35.640;139.748;2022-08-19T12:14:28;100416.72;;;29.75;42.47
64115;BME280;62188;35.640;139.748;2022-08-19T12:16:53;100418.59;;;29.79;42.45
64115;BME280;62188;35.640;139.748;2022-08-19T12:19:19;100415.09;;;29.83;42.50